Time;durP1;ratioP1;P1;durP2;ratioP2;P2;SDS_P1;SDS_P2;PMS_P1;PMS_P2;Temp;Humidity;BMP_temperature;BMP_pressure;BME280_temperature;BME280_humidity;BME280_pressure;Samples;Min_cycle;Max_cycle;Signal;HPM_P1;HPM_P2
2021/11/19 00:01:53;;;;;;;31.67;13.80;;;;;;;2.88;100.00;100260.44;5079292;28;20103;-70
2021/11/19 00:04:19;;;;;;;30.65;12.32;;;;;;;2.76;100.00;100265.78;5074865;28;20028;-70
2021/11/19 00:06:44;;;;;;;30.30;13.05;;;;;;;2.71;100.00;100241.22;5086362;28;20031;-70
2021/11/19 00:09:10;;;;;;;25.77;11.45;;;;;;;2.69;100.00;100261.88;5092457;28;20103;-71
2021/11/19 00:11:39;;;;;;;29.88;12.98;;;;;;;2.64;100.00;100264.03;5079248;28;20024;-70
2021/11/19 00:14:06;;;;;;;26.83;12.07;;;;;;;2.62;100.00;100264.16;5093233;28;20473;-70
2021/11/19 00:16:32;;;;;;;26.83;11.95;;;;;;;2.66;100.00;100266.59;5089928;28;20030;-70
2021/11/19 00:18:58;;;;;;;22.50;11.13;;;;;;;2.69;100.00;100256.53;5076382;28;20782;-70
2021/11/19 00:21:27;;;;;;;22.10;10.63;;;;;;;2.69;100.00;100261.88;5087205;28;20056;-70
2021/11/19 00:23:52;;;;;;;24.67;10.80;;;;;;;2.69;100.00;100261.88;5092405;28;20489;-71
2021/11/19 00:26:20;;;;;;;19.30;10.35;;;;;;;2.67;100.00;100265.63;5089353;28;20096;-71
2021/11/19 00:28:46;;;;;;;20.45;11.30;;;;;;;2.60;100.00;100259.91;5090374;28;20028;-71
2021/11/19 00:31:12;;;;;;;21.88;11.45;;;;;;;2.60;100.00;100260.75;5087359;28;20366;-71
2021/11/19 00:33:38;;;;;;;20.50;10.88;;;;;;;2.56;100.00;100256.59;5092047;28;20066;-71
2021/11/19 00:36:08;;;;;;;21.48;10.27;;;;;;;2.51;100.00;100263.25;5092103;28;20024;-71
2021/11/19 00:38:34;;;;;;;24.95;11.55;;;;;;;2.48;100.00;100260.81;5092573;28;20024;-70
2021/11/19 00:41:02;;;;;;;28.98;13.25;;;;;;;2.38;100.00;100258.00;5092553;28;20081;-70
2021/11/19 00:43:28;;;;;;;21.70;12.13;;;;;;;2.29;100.00;100270.22;5091948;28;20051;-71
2021/11/19 00:45:54;;;;;;;19.90;11.48;;;;;;;2.28;100.00;100257.84;5082961;28;20470;-70
2021/11/19 00:48:22;;;;;;;19.65;10.43;;;;;;;2.19;100.00;100255.84;5088635;28;20039;-70
2021/11/19 00:51:19;;;;;;;20.13;11.07;;;;;;;2.10;100.00;100269.91;5089648;28;20112;-69
2021/11/19 00:53:50;;;;;;;19.40;10.70;;;;;;;2.09;100.00;100277.03;5084712;28;20027;-70
2021/11/19 00:56:19;;;;;;;21.00;11.15;;;;;;;2.12;100.00;100270.59;5082867;28;20037;-71
2021/11/19 00:58:46;;;;;;;22.83;11.02;;;;;;;2.18;100.00;100270.19;5084090;28;20086;-71
2021/11/19 01:01:27;;;;;;;20.65;9.73;;;;;;;2.21;100.00;100274.44;5074978;28;20038;-71
2021/11/19 01:03:54;;;;;;;21.48;11.00;;;;;;;2.38;100.00;100279.34;5091103;28;20056;-70
2021/11/19 01:06:20;;;;;;;20.65;10.80;;;;;;;2.49;100.00;100279.44;5092837;28;20052;-70
2021/11/19 01:08:45;;;;;;;21.42;10.02;;;;;;;2.55;100.00;100264.75;5114047;28;20091;-70
2021/11/19 01:11:15;;;;;;;26.40;10.93;;;;;;;2.75;100.00;100271.22;5116441;28;20028;-71
2021/11/19 01:13:43;;;;;;;20.00;9.88;;;;;;;2.84;100.00;100271.38;5115590;28;20044;-70
2021/11/19 01:16:23;;;;;;;17.10;9.55;;;;;;;2.94;100.00;100274.22;5091125;28;20478;-70
2021/11/19 01:18:53;;;;;;;20.27;10.65;;;;;;;2.97;100.00;100262.44;5099274;28;20034;-70
2021/11/19 01:21:21;;;;;;;21.58;9.93;;;;;;;3.06;100.00;100278.59;5099656;28;20020;-71
2021/11/19 01:23:47;;;;;;;17.83;9.88;;;;;;;2.94;100.00;100270.69;5092097;28;20488;-71
2021/11/19 01:26:20;;;;;;;19.30;10.82;;;;;;;3.21;100.00;100281.06;5090248;28;20397;-71
2021/11/19 01:28:47;;;;;;;21.63;10.10;;;;;;;3.22;100.00;100291.66;5090951;28;20024;-71
2021/11/19 01:31:17;;;;;;;21.35;9.70;;;;;;;3.21;100.00;100289.94;5071316;28;20036;-71
2021/11/19 01:33:44;;;;;;;22.35;10.90;;;;;;;3.38;100.00;100279.72;5091629;28;20035;-70
2021/11/19 01:36:09;;;;;;;18.15;9.10;;;;;;;3.33;100.00;100265.84;5097175;28;20028;-70
2021/11/19 01:38:35;;;;;;;17.73;10.27;;;;;;;3.48;100.00;100270.00;5098443;28;20024;-71
2021/11/19 01:41:06;;;;;;;23.10;9.85;;;;;;;3.55;100.00;100273.06;5082720;28;20359;-71
2021/11/19 01:43:34;;;;;;;18.15;9.13;;;;;;;3.60;100.00;100273.53;5092563;28;20031;-71
2021/11/19 01:46:03;;;;;;;18.88;9.88;;;;;;;3.63;100.00;100282.16;5096342;28;20416;-70
2021/11/19 01:48:32;;;;;;;18.85;8.98;;;;;;;3.60;100.00;100258.31;5088778;28;20431;-70
2021/11/19 01:51:19;;;;;;;14.32;8.68;;;;;;;3.70;100.00;100264.66;5090549;28;20473;-70
2021/11/19 01:53:50;;;;;;;18.10;9.45;;;;;;;3.57;100.00;100252.38;5098414;28;20038;-71
2021/11/19 01:56:31;;;;;;;16.38;8.82;;;;;;;3.57;100.00;100255.91;5096740;28;20019;-71
2021/11/19 01:59:07;;;;;;;18.42;8.60;;;;;;;3.58;100.00;100270.97;5085719;28;20031;-70
2021/11/19 02:01:38;;;;;;;18.10;9.90;;;;;;;3.55;100.00;100263.19;5078551;28;20500;-70
2021/11/19 02:04:11;;;;;;;18.05;9.10;;;;;;;3.61;100.00;100276.06;5078605;28;20021;-70
2021/11/19 02:06:50;;;;;;;16.48;8.95;;;;;;;3.65;100.00;100274.03;5079519;28;20486;-69
2021/11/19 02:09:28;;;;;;;15.55;9.23;;;;;;;3.62;100.00;100277.78;5091477;28;20059;-69
2021/11/19 02:12:05;;;;;;;13.52;7.43;;;;;;;3.59;100.00;100288.75;5099072;28;20071;-70
2021/11/19 02:14:42;;;;;;;14.80;7.15;;;;;;;3.67;100.00;100291.66;5090154;28;20385;-70
2021/11/19 02:17:08;;;;;;;14.73;7.20;;;;;;;3.55;100.00;100270.38;5098234;28;20103;-70
2021/11/19 02:19:39;;;;;;;17.50;7.85;;;;;;;3.52;100.00;100263.44;5095935;28;20028;-70
2021/11/19 02:22:11;;;;;;;14.57;7.90;;;;;;;3.59;100.00;100279.84;5098313;28;20024;-69
2021/11/19 02:24:42;;;;;;;21.08;8.55;;;;;;;3.54;100.00;100274.88;5092859;28;20115;-69
2021/11/19 02:27:09;;;;;;;17.42;8.43;;;;;;;3.54;100.00;100280.22;5087971;28;20024;-69
2021/11/19 02:29:42;;;;;;;16.85;9.40;;;;;;;3.49;100.00;100267.22;5096362;28;20657;-70
2021/11/19 02:32:14;;;;;;;19.38;9.43;;;;;;;3.55;100.00;100275.72;5098366;28;20473;-69
2021/11/19 02:34:40;;;;;;;16.45;8.77;;;;;;;3.55;100.00;100276.56;5097610;28;20563;-70
2021/11/19 02:37:15;;;;;;;18.08;8.32;;;;;;;3.42;100.00;100274.00;5097440;28;20034;-69
2021/11/19 02:39:44;;;;;;;22.40;9.55;;;;;;;3.27;100.00;100273.41;5097611;28;20374;-69
2021/11/19 02:42:37;;;;;;;22.85;10.30;;;;;;;3.23;100.00;100265.75;5084152;28;20021;-69
2021/11/19 02:45:07;;;;;;;17.38;9.00;;;;;;;3.17;100.00;100271.56;5083250;28;20020;-70
2021/11/19 02:47:33;;;;;;;19.27;8.90;;;;;;;3.14;100.00;100258.44;5091269;28;20094;-69
2021/11/19 02:49:58;;;;;;;18.23;8.32;;;;;;;3.20;100.00;100271.34;5094453;28;20073;-69
2021/11/19 02:52:32;;;;;;;15.90;8.55;;;;;;;3.24;100.00;100281.66;5092065;28;20031;-69
2021/11/19 02:55:00;;;;;;;21.42;9.27;;;;;;;3.27;100.00;100285.91;5090436;28;20385;-70
2021/11/19 02:57:26;;;;;;;16.80;8.27;;;;;;;3.41;100.00;100268.81;5082019;28;20032;-70
2021/11/19 02:59:53;;;;;;;19.65;8.18;;;;;;;3.48;100.00;100281.56;5093864;28;20126;-70
2021/11/19 03:02:27;;;;;;;13.98;8.05;;;;;;;3.54;100.00;100290.94;5094644;28;20046;-70
2021/11/19 03:04:58;;;;;;;19.10;8.18;;;;;;;3.57;100.00;100289.84;5092957;28;20020;-70
2021/11/19 03:07:23;;;;;;;16.50;8.38;;;;;;;3.49;100.00;100290.44;5094719;28;20036;-70
2021/11/19 03:09:58;;;;;;;17.17;8.60;;;;;;;3.59;100.00;100294.09;5085845;28;20025;-70
2021/11/19 03:12:25;;;;;;;15.80;8.45;;;;;;;3.53;100.00;100288.38;5088884;28;20028;-70
2021/11/19 03:14:53;;;;;;;16.77;8.48;;;;;;;3.54;100.00;100280.22;5086120;28;20028;-70
2021/11/19 03:17:20;;;;;;;14.25;8.05;;;;;;;3.59;100.00;100275.38;5090186;28;20130;-70
2021/11/19 03:19:46;;;;;;;17.77;8.27;;;;;;;3.65;100.00;100282.91;5089712;28;20023;-70
2021/11/19 03:22:14;;;;;;;18.30;7.57;;;;;;;3.63;100.00;100284.00;5089808;28;20024;-70
2021/11/19 03:24:40;;;;;;;15.23;8.30;;;;;;;3.61;100.00;100278.75;5090626;28;20032;-70
2021/11/19 03:27:08;;;;;;;16.10;8.45;;;;;;;3.65;100.00;100282.91;5090264;28;20038;-70
2021/11/19 03:29:33;;;;;;;14.20;7.80;;;;;;;3.64;100.00;100285.69;5076331;28;20017;-70
2021/11/19 03:31:59;;;;;;;15.65;8.20;;;;;;;3.61;100.00;100289.44;5091847;28;20035;-70
2021/11/19 03:34:24;;;;;;;16.50;8.98;;;;;;;3.80;100.00;100293.34;5092144;28;20023;-69
2021/11/19 03:36:53;;;;;;;20.48;8.23;;;;;;;3.69;100.00;100295.06;5092666;28;20031;-69
2021/11/19 03:39:21;;;;;;;15.60;7.90;;;;;;;3.79;100.00;100305.03;5075157;28;20030;-69
2021/11/19 03:41:48;;;;;;;13.88;6.57;;;;;;;3.80;100.00;100282.63;5083715;28;20480;-68
2021/11/19 03:44:21;;;;;;;16.58;8.45;;;;;;;3.88;100.00;100302.47;5090972;28;22285;-69
2021/11/19 03:46:55;;;;;;;13.30;8.20;;;;;;;3.93;99.99;100286.88;5085082;28;20032;-69
2021/11/19 03:49:21;;;;;;;18.55;8.18;;;;;;;4.08;99.90;100294.63;5092204;28;20115;-70
2021/11/19 03:51:51;;;;;;;21.38;9.50;;;;;;;3.98;99.46;100305.22;5093314;28;20481;-69
2021/11/19 03:54:19;;;;;;;15.90;8.82;;;;;;;3.98;100.00;100294.53;5092775;28;20043;-69
2021/11/19 03:56:44;;;;;;;16.17;8.85;;;;;;;3.96;100.00;100293.81;5093618;28;20549;-69
2021/11/19 03:59:11;;;;;;;19.63;10.00;;;;;;;3.94;100.00;100290.41;5090908;28;20034;-69
2021/11/19 04:01:39;;;;;;;20.55;9.18;;;;;;;3.92;100.00;100293.19;5093260;28;20539;-70
2021/11/19 04:04:06;;;;;;;17.42;8.38;;;;;;;4.06;100.00;100297.47;5089617;28;20021;-70
2021/11/19 04:06:32;;;;;;;14.73;8.30;;;;;;;4.20;100.00;100292.78;5073388;28;20028;-70
2021/11/19 04:08:57;;;;;;;18.33;7.55;;;;;;;4.27;100.00;100297.53;5091101;28;20120;-70
2021/11/19 04:11:24;;;;;;;20.85;8.50;;;;;;;4.26;99.26;100298.50;5092741;28;20032;-70
2021/11/19 04:13:51;;;;;;;17.08;8.60;;;;;;;4.23;100.00;100296.06;5091941;28;20553;-70
2021/11/19 04:16:20;;;;;;;13.75;7.82;;;;;;;4.36;99.51;100293.22;5073102;28;20030;-73
2021/11/19 04:18:46;;;;;;;13.73;7.82;;;;;;;4.35;99.70;100283.50;5088417;28;20474;-70
2021/11/19 04:21:14;;;;;;;16.58;8.80;;;;;;;4.27;99.64;100289.50;5080647;28;20050;-70
2021/11/19 04:23:40;;;;;;;15.00;8.60;;;;;;;4.43;99.40;100296.22;5090153;28;20032;-70
2021/11/19 04:26:07;;;;;;;17.83;8.38;;;;;;;4.41;99.08;100290.19;5089248;28;20024;-70
2021/11/19 04:28:33;;;;;;;16.63;8.88;;;;;;;4.28;99.71;100290.34;5089304;28;20110;-70
2021/11/19 04:31:00;;;;;;;21.63;9.45;;;;;;;4.31;99.98;100293.59;5092605;28;20089;-70
2021/11/19 04:33:26;;;;;;;18.65;9.80;;;;;;;4.26;100.00;100297.63;5092730;28;20519;-70
2021/11/19 04:35:53;;;;;;;19.50;10.43;;;;;;;4.15;100.00;100288.66;5088172;28;20019;-70
2021/11/19 04:38:20;;;;;;;19.83;10.00;;;;;;;4.07;100.00;100288.44;5086987;28;20099;-70
2021/11/19 04:40:46;;;;;;;19.17;10.40;;;;;;;4.00;100.00;100281.88;5092998;28;20544;-71
2021/11/19 04:43:12;;;;;;;20.17;10.10;;;;;;;4.04;100.00;100293.19;5092452;28;20073;-70
2021/11/19 04:45:39;;;;;;;22.42;10.32;;;;;;;3.97;100.00;100279.44;5090466;28;20119;-70
2021/11/19 04:48:05;;;;;;;22.80;10.93;;;;;;;4.08;100.00;100291.97;5078328;28;20611;-70
2021/11/19 04:50:35;;;;;;;20.30;9.40;;;;;;;4.14;100.00;100292.31;5080563;28;20056;-76
2021/11/19 04:53:01;;;;;;;20.45;10.07;;;;;;;4.20;100.00;100282.09;5090015;28;20032;-74
2021/11/19 04:55:28;;;;;;;20.50;9.82;;;;;;;4.21;100.00;100281.94;5088010;28;20028;-77
2021/11/19 04:57:54;;;;;;;23.15;10.07;;;;;;;4.22;100.00;100270.25;5105293;28;20035;-74
2021/11/19 05:00:25;;;;;;;20.10;10.23;;;;;;;4.14;100.00;100246.78;5084350;28;20021;-75
2021/11/19 05:02:51;;;;;;;18.05;9.65;;;;;;;4.38;100.00;100275.19;5081942;28;20020;-76
2021/11/19 05:05:18;;;;;;;24.13;10.88;;;;;;;4.36;100.00;100277.16;5087568;28;20520;-74
2021/11/19 05:07:44;;;;;;;17.17;9.20;;;;;;;4.38;100.00;100277.88;5089341;28;20417;-73
2021/11/19 05:10:10;;;;;;;19.77;10.05;;;;;;;4.39;100.00;100277.75;5087169;28;20028;-75
2021/11/19 05:12:40;;;;;;;17.25;10.05;;;;;;;4.16;100.00;100254.69;5092315;28;20039;-75
2021/11/19 05:15:08;;;;;;;21.13;9.27;;;;;;;4.28;100.00;100274.25;5076008;28;20032;-76
2021/11/19 05:17:33;;;;;;;20.70;9.23;;;;;;;4.22;100.00;100264.91;5085073;28;20024;-76
2021/11/19 05:19:59;;;;;;;22.55;11.63;;;;;;;4.29;100.00;100273.28;5092363;28;20027;-75
2021/11/19 05:22:25;;;;;;;21.50;11.25;;;;;;;4.40;100.00;100273.22;5088757;28;20101;-75
2021/11/19 05:24:51;;;;;;;22.52;9.10;;;;;;;4.23;100.00;100266.59;5092333;28;20051;-75
2021/11/19 05:27:18;;;;;;;21.08;9.50;;;;;;;4.23;100.00;100271.97;5087080;28;20028;-73
2021/11/19 05:29:43;;;;;;;18.40;8.98;;;;;;;4.36;100.00;100271.78;5075270;28;20098;-74
2021/11/19 05:32:09;;;;;;;21.23;9.80;;;;;;;4.33;100.00;100253.28;5105499;22;20062;-73
2021/11/19 05:34:35;;;;;;;23.23;10.43;;;;;;;4.18;100.00;100228.63;5070438;28;20082;-73
2021/11/19 05:37:00;;;;;;;21.42;10.32;;;;;;;4.26;100.00;100257.47;5081275;28;20040;-69
2021/11/19 05:39:25;;;;;;;20.75;9.25;;;;;;;4.13;100.00;100253.09;5060011;28;20040;-72
2021/11/19 05:41:51;;;;;;;23.20;10.57;;;;;;;4.15;100.00;100251.16;5071449;28;20504;-71
2021/11/19 05:44:17;;;;;;;22.75;9.60;;;;;;;4.14;100.00;100246.78;5066988;28;20028;-74
2021/11/19 05:46:43;;;;;;;22.45;10.55;;;;;;;4.21;100.00;100265.03;5082291;28;20052;-75
2021/11/19 05:49:12;;;;;;;21.20;10.07;;;;;;;4.27;100.00;100269.88;5061742;28;20116;-73
2021/11/19 05:51:39;;;;;;;23.23;10.02;;;;;;;4.24;100.00;100249.53;5068840;28;20033;-71
2021/11/19 05:54:06;;;;;;;23.05;9.77;;;;;;;4.46;100.00;100282.59;5070977;28;20036;-73
2021/11/19 05:56:31;;;;;;;28.65;10.50;;;;;;;4.36;100.00;100282.50;5071007;28;20052;-72
2021/11/19 05:58:57;;;;;;;18.90;9.82;;;;;;;4.27;100.00;100267.19;5069688;28;20453;-70
2021/11/19 06:01:23;;;;;;;18.58;10.32;;;;;;;4.36;100.00;100282.50;5071537;28;20027;-70
2021/11/19 06:03:49;;;;;;;23.95;10.43;;;;;;;4.43;100.00;100290.88;5066026;28;20025;-70
2021/11/19 06:06:15;;;;;;;24.98;10.00;;;;;;;4.49;100.00;100301.09;5069683;28;20078;-71
2021/11/19 06:08:43;;;;;;;23.13;11.07;;;;;;;4.54;100.00;100302.41;5069373;28;20024;-71
2021/11/19 06:11:27;;;;;;;20.60;9.88;;;;;;;4.60;100.00;100303.72;5069004;28;20044;-70
2021/11/19 06:14:07;;;;;;;21.45;9.82;;;;;;;4.59;100.00;100297.53;5071256;28;20052;-69
2021/11/19 06:16:37;;;;;;;21.73;9.75;;;;;;;4.65;100.00;100292.63;5065905;28;20020;-69
2021/11/19 06:19:12;;;;;;;24.92;11.00;;;;;;;4.71;100.00;100286.75;5056194;28;20032;-69
2021/11/19 06:21:42;;;;;;;27.00;11.15;;;;;;;4.69;100.00;100300.28;5057583;28;20040;-69
2021/11/19 06:24:09;;;;;;;;;;;;;;;4.73;100.00;100301.72;5075108;28;20573;-69
2021/11/19 06:26:35;;;;;;;25.48;9.88;;;;;;;4.68;100.00;100303.94;5074799;28;19961;-68
2021/11/19 06:29:04;;;;;;;28.95;11.00;;;;;;;4.65;100.00;100314.09;5068597;28;20019;-68
2021/11/19 06:31:31;;;;;;;22.65;9.90;;;;;;;4.57;100.00;100315.56;5069680;28;20029;-70
2021/11/19 06:33:57;;;;;;;21.80;10.38;;;;;;;4.34;100.00;100293.34;5066277;28;20490;-70
2021/11/19 06:36:23;;;;;;;29.20;11.95;;;;;;;4.55;100.00;100324.72;5064885;28;20063;-68
2021/11/19 06:38:50;;;;;;;27.63;10.52;;;;;;;4.63;100.00;100319.56;5064701;28;20096;-69
2021/11/19 06:41:16;;;;;;;19.60;10.43;;;;;;;4.52;100.00;100293.66;5067065;28;20466;-69
2021/11/19 06:43:42;;;;;;;27.73;11.18;;;;;;;4.61;100.00;100308.97;5063177;28;20016;-69
2021/11/19 06:46:09;;;;;;;21.33;10.95;;;;;;;4.63;100.00;100318.72;5068604;28;20024;-69
2021/11/19 06:48:34;;;;;;;27.80;11.00;;;;;;;4.53;100.00;100303.41;5064829;28;20024;-69
2021/11/19 06:51:03;;;;;;;22.65;10.85;;;;;;;4.77;100.00;100313.06;5066295;28;20038;-67
2021/11/19 06:53:32;;;;;;;31.15;11.70;;;;;;;4.73;100.00;100314.28;5060888;28;20445;-69
2021/11/19 06:55:58;;;;;;;27.35;10.75;;;;;;;4.84;100.00;100316.91;5056838;28;20031;-68
2021/11/19 06:58:25;;;;;;;30.45;11.68;;;;;;;4.79;100.00;100324.47;5059868;28;20036;-68
2021/11/19 07:00:50;;;;;;;23.35;11.80;;;;;;;4.67;100.00;100331.75;5073904;28;20378;-69
2021/11/19 07:03:16;;;;;;;26.10;12.10;;;;;;;4.69;100.00;100332.47;5068903;28;20036;-68
2021/11/19 07:05:42;;;;;;;29.50;11.98;;;;;;;4.73;100.00;100333.91;5065144;28;20029;-68
2021/11/19 07:08:10;;;;;;;33.13;12.07;;;;;;;4.84;100.00;100338.34;5068097;28;20024;-71
2021/11/19 07:10:37;;;;;;;20.65;10.45;;;;;;;4.87;100.00;100334.56;5071344;28;20055;-67
2021/11/19 07:13:04;;;;;;;30.67;11.52;;;;;;;4.78;100.00;100334.38;5070948;28;20039;-67
2021/11/19 07:15:29;;;;;;;26.20;11.25;;;;;;;4.73;100.00;100333.06;5061495;28;20105;-67
2021/11/19 07:17:55;;;;;;;22.92;11.63;;;;;;;4.71;100.00;100340.38;5069770;28;20107;-69
2021/11/19 07:20:23;;;;;;;28.45;11.68;;;;;;;4.59;100.00;100332.38;5072824;28;20062;-70
2021/11/19 07:22:49;;;;;;;24.67;11.77;;;;;;;4.57;100.00;100345.03;5071572;28;20085;-73
2021/11/19 07:25:18;;;;;;;23.48;11.68;;;;;;;4.56;100.00;100327.28;5072861;28;20028;-71
2021/11/19 07:27:46;;;;;;;24.23;11.43;;;;;;;4.53;100.00;100332.88;5063885;28;20033;-71
2021/11/19 07:30:16;;;;;;;26.25;10.85;;;;;;;4.51;100.00;100331.31;5064151;28;20477;-72
2021/11/19 07:32:41;;;;;;;25.48;12.25;;;;;;;4.34;100.00;100316.63;5053320;28;20094;-71
2021/11/19 07:35:08;;;;;;;26.58;11.95;;;;;;;4.52;100.00;100355.28;5062352;28;20107;-70
2021/11/19 07:37:35;;;;;;;24.83;11.88;;;;;;;4.48;100.00;100353.84;5067084;28;20906;-69
2021/11/19 07:40:00;;;;;;;26.38;10.75;;;;;;;4.44;100.00;100352.41;5070982;28;20031;-70
2021/11/19 07:42:26;;;;;;;24.60;10.93;;;;;;;4.52;100.00;100357.97;5071740;28;20393;-70
2021/11/19 07:44:52;;;;;;;24.20;11.10;;;;;;;4.63;100.00;100345.50;5067143;28;20024;-70
2021/11/19 07:47:17;;;;;;;25.50;11.95;;;;;;;4.58;100.00;100349.44;5059219;28;20030;-70
2021/11/19 07:49:43;;;;;;;23.55;12.48;;;;;;;4.65;100.00;100352.44;5073176;28;20020;-71
2021/11/19 07:52:09;;;;;;;28.63;11.75;;;;;;;4.60;100.00;100344.78;5069734;28;20040;-71
2021/11/19 07:54:34;;;;;;;30.13;10.77;;;;;;;4.64;100.00;100344.53;5053611;28;20107;-70
2021/11/19 07:56:59;;;;;;;28.30;11.98;;;;;;;4.56;100.00;100338.00;5073261;28;20504;-71
2021/11/19 07:59:28;;;;;;;23.17;11.25;;;;;;;4.69;100.00;100356.59;5061983;28;20029;-70
2021/11/19 08:01:59;;;;;;;19.60;10.68;;;;;;;4.65;100.00;100356.97;5064269;28;20025;-70
2021/11/19 08:04:26;;;;;;;21.80;9.90;;;;;;;4.67;100.00;100355.88;5071765;28;20037;-74
2021/11/19 08:06:51;;;;;;;18.67;10.38;;;;;;;4.66;100.00;100362.19;5072222;28;20027;-73
2021/11/19 08:09:17;;;;;;;20.83;10.75;;;;;;;4.39;100.00;100335.84;5071870;28;20385;-72
2021/11/19 08:11:42;;;;;;;20.80;10.95;;;;;;;4.44;100.00;100354.22;5070587;28;20028;-72
2021/11/19 08:14:08;;;;;;;25.38;10.32;;;;;;;4.37;100.00;100365.44;5066725;28;20024;-73
2021/11/19 08:16:42;;;;;;;21.27;10.10;;;;;;;4.33;100.00;100380.06;5072025;28;20056;-72
2021/11/19 08:19:23;;;;;;;27.50;10.85;;;;;;;4.35;100.00;100385.31;5072544;28;20055;-73
2021/11/19 08:21:49;;;;;;;21.65;9.98;;;;;;;4.36;100.00;100384.34;5070083;28;20060;-72
2021/11/19 08:24:15;;;;;;;22.30;10.00;;;;;;;4.34;100.00;100380.91;5062569;28;20051;-73
2021/11/19 08:26:44;;;;;;;17.42;9.73;;;;;;;4.25;100.00;100360.25;5075397;28;20055;-73
2021/11/19 08:29:14;;;;;;;21.45;9.98;;;;;;;4.31;100.00;100373.13;5074426;28;20025;-73
2021/11/19 08:31:41;;;;;;;17.35;9.82;;;;;;;4.37;100.00;100386.03;5068495;28;20047;-73
2021/11/19 08:34:07;;;;;;;16.67;9.65;;;;;;;4.38;100.00;100377.03;5072620;28;20112;-76
2021/11/19 08:36:32;;;;;;;19.70;10.07;;;;;;;4.34;100.00;100371.03;5068866;28;20075;-73
2021/11/19 08:39:00;;;;;;;18.42;9.75;;;;;;;4.56;99.79;100380.88;5079138;28;20028;-73
2021/11/19 08:41:26;;;;;;;22.25;9.60;;;;;;;4.37;98.90;100356.53;5085701;28;20020;-71
2021/11/19 08:43:54;;;;;;;20.70;9.27;;;;;;;4.70;98.71;100366.31;5058445;28;20029;-72
2021/11/19 08:46:25;;;;;;;17.60;9.07;;;;;;;4.68;97.73;100372.78;5065312;28;20059;-72
2021/11/19 08:48:51;;;;;;;17.60;9.52;;;;;;;4.53;98.21;100362.38;5066986;28;20085;-74
2021/11/19 08:51:23;;;;;;;19.60;9.43;;;;;;;4.67;97.79;100382.69;5068582;28;20025;-72
2021/11/19 08:53:51;;;;;;;23.63;10.95;;;;;;;4.69;98.19;100377.16;5065431;28;20036;-74
2021/11/19 08:56:17;;;;;;;20.43;10.07;;;;;;;4.50;98.77;100353.72;5067317;28;20028;-75
2021/11/19 08:58:43;;;;;;;18.80;9.63;;;;;;;4.78;98.18;100395.19;5073497;28;20056;-75
2021/11/19 09:01:10;;;;;;;17.42;10.07;;;;;;;4.73;97.80;100378.63;5070141;28;20490;-75
2021/11/19 09:03:36;;;;;;;18.10;9.18;;;;;;;4.64;97.46;100360.59;5061630;28;20034;-69
2021/11/19 09:06:06;;;;;;;19.88;10.30;;;;;;;4.76;96.95;100362.28;5070307;28;20095;-73
2021/11/19 09:08:32;;;;;;;18.17;10.05;;;;;;;4.88;96.91;100380.03;5061433;28;20127;-72
2021/11/19 09:10:58;;;;;;;18.00;9.90;;;;;;;4.86;98.03;100370.41;5065311;28;20021;-71
2021/11/19 09:13:24;;;;;;;18.42;8.93;;;;;;;4.80;97.46;100356.53;5066123;28;20024;-72
2021/11/19 09:15:51;;;;;;;19.77;9.57;;;;;;;4.71;97.45;100359.13;5061927;28;20060;-73
2021/11/19 09:18:35;;;;;;;18.67;9.50;;;;;;;4.68;99.01;100370.13;5067660;28;20028;-73
2021/11/19 09:21:25;;;;;;;17.00;9.23;;;;;;;4.66;98.73;100378.28;5060691;28;20798;-73
2021/11/19 09:24:00;;;;;;;17.65;9.48;;;;;;;4.79;99.19;100367.38;5067400;28;20052;-72
2021/11/19 09:26:37;;;;;;;19.45;9.77;;;;;;;4.68;99.59;100378.16;5070760;28;20039;-71
2021/11/19 09:29:07;;;;;;;19.65;9.88;;;;;;;4.73;99.25;100367.91;5071415;28;20039;-70
2021/11/19 09:31:33;;;;;;;26.55;11.35;;;;;;;4.68;99.30;100368.28;5072137;28;20056;-74
2021/11/19 09:33:59;;;;;;;20.88;10.52;;;;;;;4.58;99.80;100341.41;5071600;28;20032;-73
2021/11/19 09:36:24;;;;;;;20.77;10.57;;;;;;;4.65;99.11;100343.56;5068781;28;20043;-71
2021/11/19 09:38:50;;;;;;;23.13;11.32;;;;;;;4.73;99.35;100354.50;5065644;28;20032;-74
2021/11/19 09:41:40;;;;;;;15.57;9.20;;;;;;;5.15;97.07;100376.84;5067520;28;20477;-72
2021/11/19 09:44:13;;;;;;;17.77;9.55;;;;;;;5.20;96.50;100346.97;5063430;28;20029;-69
2021/11/19 09:46:58;;;;;;;22.33;9.63;;;;;;;5.07;95.56;100320.31;5076319;28;20052;-71
2021/11/19 09:50:12;;;;;;;19.90;10.50;;;;;;;5.47;94.68;100357.16;5074834;28;20024;-71
2021/11/19 09:52:58;;;;;;;19.10;9.07;;;;;;;5.74;95.00;100364.66;5062337;28;20029;-73
2021/11/19 09:55:55;;;;;;;21.25;9.43;;;;;;;6.04;93.27;100360.28;5071592;28;20554;-68
2021/11/19 09:58:48;;;;;;;24.58;9.15;;;;;;;5.90;92.03;100370.38;5074690;28;20024;-69
2021/11/19 10:01:32;;;;;;;28.42;9.77;;;;;;;5.82;91.39;100332.59;5067291;28;20028;-69
2021/11/19 10:04:22;;;;;;;25.27;9.32;;;;;;;5.79;91.61;100340.94;5060539;28;20139;-69
2021/11/19 10:07:08;;;;;;;19.58;9.35;;;;;;;6.07;91.61;100358.16;5056276;28;20025;-69
2021/11/19 10:10:14;;;;;;;20.63;9.15;;;;;;;6.18;90.52;100359.06;5070041;28;20020;-69
2021/11/19 10:13:18;;;;;;;18.25;8.77;;;;;;;6.21;91.70;100369.53;5063188;28;20498;-69
2021/11/19 10:16:10;;;;;;;22.58;8.27;;;;;;;6.28;89.78;100368.00;5024130;28;20079;-69
2021/11/19 10:18:53;;;;;;;17.70;8.68;;;;;;;6.22;90.26;100355.97;5064488;28;20024;-69
2021/11/19 10:21:34;;;;;;;17.40;8.15;;;;;;;6.23;90.11;100354.13;5059625;28;20063;-69
2021/11/19 10:24:10;;;;;;;20.42;9.38;;;;;;;6.29;89.36;100349.06;5062329;28;20024;-68
2021/11/19 10:26:37;;;;;;;18.05;8.73;;;;;;;6.17;90.86;100354.69;5068337;28;20037;-68
2021/11/19 10:29:23;;;;;;;21.38;8.50;;;;;;;6.52;88.78;100354.19;5068908;28;20108;-69
2021/11/19 10:31:50;;;;;;;17.85;8.77;;;;;;;6.77;87.62;100350.97;5063141;28;20036;-69
2021/11/19 10:34:22;;;;;;;18.95;8.73;;;;;;;6.91;87.41;100344.28;5068284;28;20045;-68
2021/11/19 10:37:26;;;;;;;16.77;8.55;;;;;;;7.00;86.45;100339.91;5064212;28;20024;-68
2021/11/19 10:40:28;;;;;;;23.77;9.02;;;;;;;6.96;85.24;100333.13;5063701;28;20438;-71
2021/11/19 10:43:20;;;;;;;17.70;8.90;;;;;;;6.88;85.96;100335.66;5072784;28;20024;-70
2021/11/19 10:46:06;;;;;;;22.83;9.52;;;;;;;7.27;84.98;100319.50;5071320;28;20418;-73
2021/11/19 10:48:58;;;;;;;23.13;9.05;;;;;;;7.13;84.68;100323.50;5070688;28;20370;-71
2021/11/19 10:51:41;;;;;;;18.95;8.93;;;;;;;7.19;85.14;100325.59;5071558;28;20032;-70
2021/11/19 10:54:37;;;;;;;16.92;8.35;;;;;;;7.07;85.18;100318.66;5071935;28;20072;-71
2021/11/19 10:57:13;;;;;;;20.38;9.75;;;;;;;6.94;86.06;100329.72;5070788;28;20040;-69
2021/11/19 11:00:01;;;;;;;20.20;9.25;;;;;;;6.70;86.60;100317.53;5065157;28;20048;-68
2021/11/19 11:02:36;;;;;;;16.77;8.40;;;;;;;6.56;87.30;100304.53;5058429;28;20024;-68
2021/11/19 11:05:16;;;;;;;23.00;8.93;;;;;;;6.72;87.52;100315.56;5066276;28;20462;-68
2021/11/19 11:08:02;;;;;;;20.98;9.20;;;;;;;7.02;86.33;100311.88;5070143;28;20031;-69
2021/11/19 11:10:32;;;;;;;17.70;9.13;;;;;;;6.95;86.68;100299.97;5073845;28;20385;-69
2021/11/19 11:12:57;;;;;;;19.48;9.35;;;;;;;6.80;87.12;100317.53;5074735;28;20048;-68
2021/11/19 11:15:33;;;;;;;23.50;10.13;;;;;;;6.85;87.60;100314.44;5072933;28;20119;-68
2021/11/19 11:18:11;;;;;;;18.15;10.30;;;;;;;6.77;87.77;100309.75;5067034;28;20032;-68
2021/11/19 11:20:39;;;;;;;21.98;9.25;;;;;;;6.64;88.37;100307.34;5083613;28;20036;-68
2021/11/19 11:23:51;;;;;;;20.05;10.38;;;;;;;6.58;88.84;100302.56;5083495;28;20032;-68
2021/11/19 11:26:25;;;;;;;21.25;9.68;;;;;;;6.56;89.90;100283.00;5073663;28;20046;-69
2021/11/19 11:29:17;;;;;;;24.38;9.60;;;;;;;6.76;88.64;100300.00;5057324;28;20040;-69
2021/11/19 11:31:50;;;;;;;25.60;10.48;;;;;;;6.84;88.55;100299.28;5088457;28;20047;-68
2021/11/19 11:34:30;;;;;;;22.35;9.73;;;;;;;6.79;87.94;100286.28;5069492;28;20704;-69